createdAt,value
2023-05-15T00:00:34.787Z,70.00
2023-05-15T00:03:02.523Z,78.87
2023-05-15T00:05:29.356Z,67.60
2023-05-15T00:07:56.001Z,70.17
2023-05-15T00:10:22.663Z,71.23
2023-05-15T00:12:49.426Z,68.63
2023-05-15T00:15:16.040Z,74.59
2023-05-15T00:17:42.635Z,75.87
2023-05-15T00:20:10.085Z,78.83
2023-05-15T00:22:36.874Z,69.07
2023-05-15T00:25:03.766Z,76.15
2023-05-15T00:27:30.520Z,72.99
2023-05-15T00:29:57.149Z,80.43
2023-05-15T00:32:24.731Z,77.01
2023-05-15T00:34:51.269Z,71.30
2023-05-15T00:37:19.222Z,72.31
2023-05-15T00:39:46.106Z,81.44
2023-05-15T00:42:15.471Z,78.37
2023-05-15T00:44:44.370Z,70.99
2023-05-15T00:47:11.900Z,77.38
2023-05-15T00:49:39.053Z,82.22
2023-05-15T00:52:08.615Z,75.06
2023-05-15T00:54:35.542Z,72.53
2023-05-15T00:57:05.356Z,78.82
2023-05-15T00:59:33.092Z,81.25
2023-05-15T01:01:59.999Z,75.58
2023-05-15T01:04:26.754Z,89.16
2023-05-15T01:06:54.136Z,90.90
2023-05-15T01:09:23.696Z,84.32
2023-05-15T01:11:53.498Z,80.19
2023-05-15T01:14:20.057Z,74.06
2023-05-15T01:16:46.744Z,91.22
2023-05-15T01:19:13.498Z,87.36
2023-05-15T01:22:18.174Z,80.88
2023-05-15T01:25:06.829Z,75.70
2023-05-15T01:27:48.588Z,82.51
2023-05-15T01:30:24.521Z,82.89
2023-05-15T01:33:02.826Z,87.91
2023-05-15T01:35:41.651Z,80.14
2023-05-15T01:38:27.775Z,82.05
2023-05-15T01:41:03.365Z,91.81
2023-05-15T01:43:33.118Z,88.94
2023-05-15T01:46:00.963Z,86.47
2023-05-15T01:48:31.464Z,81.76
2023-05-15T01:51:02.794Z,100.00
2023-05-15T01:53:32.327Z,97.16
2023-05-15T01:55:59.973Z,81.09
2023-05-15T01:58:27.655Z,81.64
2023-05-15T02:00:55.463Z,78.99
2023-05-15T02:03:22.338Z,86.00
2023-05-15T02:05:50.732Z,91.22
2023-05-15T02:08:17.677Z,73.36
2023-05-15T02:10:44.579Z,83.30
2023-05-15T02:13:12.677Z,75.81
2023-05-15T02:15:39.558Z,94.24
2023-05-15T02:18:06.589Z,100.00
2023-05-15T02:20:33.283Z,100.00
2023-05-15T02:22:59.961Z,100.00
2023-05-15T02:25:43.695Z,96.05
2023-05-15T02:28:20.805Z,82.78
2023-05-15T02:31:05.820Z,87.57
2023-05-15T02:33:45.917Z,100.00
2023-05-15T02:36:19.142Z,90.25
2023-05-15T02:38:52.206Z,92.67
2023-05-15T02:41:19.840Z,92.55
2023-05-15T02:43:49.071Z,92.61
2023-05-15T02:46:16.378Z,78.30
2023-05-15T02:48:44.173Z,79.14
2023-05-15T02:51:11.126Z,84.43
2023-05-15T02:53:41.880Z,84.60
2023-05-15T02:56:16.562Z,95.71
2023-05-15T02:58:43.380Z,88.84
2023-05-15T03:01:28.902Z,96.93
2023-05-15T03:03:55.630Z,87.28
2023-05-15T03:06:22.492Z,89.35
2023-05-15T03:08:49.127Z,92.12
2023-05-15T03:11:16.356Z,80.93
2023-05-15T03:13:42.939Z,83.54
2023-05-15T03:16:09.805Z,76.09
2023-05-15T03:18:36.525Z,80.42
2023-05-15T03:21:03.288Z,86.13
2023-05-15T03:23:31.444Z,81.45
2023-05-15T03:25:59.222Z,86.55
2023-05-15T03:28:26.014Z,84.49
2023-05-15T03:30:52.668Z,81.03
2023-05-15T03:33:19.594Z,94.08
2023-05-15T03:35:46.441Z,100.00
2023-05-15T03:38:13.153Z,98.36
2023-05-15T03:40:39.874Z,88.65
2023-05-15T03:43:06.817Z,84.21
2023-05-15T03:45:37.160Z,75.68
2023-05-15T03:48:03.981Z,93.53
2023-05-15T03:50:30.885Z,100.00
2023-05-15T03:52:57.683Z,100.00
2023-05-15T03:55:24.594Z,96.47
2023-05-15T03:57:51.525Z,100.00
2023-05-15T04:00:19.147Z,83.86
2023-05-15T04:02:46.211Z,100.00
2023-05-15T04:05:13.026Z,83.04
2023-05-15T04:07:39.803Z,96.79
2023-05-15T04:10:07.075Z,88.75
2023-05-15T04:12:35.495Z,100.00
2023-05-15T04:15:16.980Z,88.71
2023-05-15T04:17:45.101Z,85.79
2023-05-15T04:20:14.353Z,80.02
2023-05-15T04:22:42.574Z,81.01
2023-05-15T04:25:11.040Z,89.75
2023-05-15T04:27:38.865Z,84.46
2023-05-15T04:30:06.495Z,96.63
2023-05-15T04:32:34.044Z,85.81
2023-05-15T04:35:01.486Z,84.29
2023-05-15T04:37:29.206Z,82.77
2023-05-15T04:39:55.849Z,100.00
2023-05-15T04:42:23.579Z,100.00
2023-05-15T04:44:50.305Z,94.93
2023-05-15T04:47:16.987Z,86.82
2023-05-15T04:49:43.681Z,84.65
2023-05-15T04:52:11.413Z,91.76
2023-05-15T04:54:38.103Z,100.00
2023-05-15T04:57:05.098Z,98.71
2023-05-15T04:59:31.789Z,98.95
2023-05-15T05:01:58.586Z,81.84
2023-05-15T05:04:25.368Z,89.67
2023-05-15T05:06:52.543Z,94.16
2023-05-15T05:09:20.093Z,100.00
2023-05-15T05:11:47.743Z,100.00
2023-05-15T05:14:15.294Z,100.00
2023-05-15T05:16:44.909Z,84.90
2023-05-15T05:19:11.791Z,96.65
2023-05-15T05:21:38.821Z,95.04
2023-05-15T05:24:05.950Z,89.39
2023-05-15T05:26:32.748Z,92.76
2023-05-15T05:28:59.452Z,100.00
2023-05-15T05:31:26.223Z,90.45
2023-05-15T05:33:52.981Z,95.05
2023-05-15T05:36:19.725Z,91.14
2023-05-15T05:38:46.541Z,93.46
2023-05-15T05:41:13.185Z,100.00
2023-05-15T05:43:39.820Z,90.75
2023-05-15T05:46:07.921Z,100.00
2023-05-15T05:48:34.593Z,100.00
2023-05-15T05:51:03.547Z,95.59
2023-05-15T05:53:30.279Z,98.03
2023-05-15T05:55:56.984Z,94.34
2023-05-15T05:58:26.441Z,100.00
2023-05-15T06:00:53.719Z,97.88
2023-05-15T06:03:24.600Z,100.00
2023-05-15T06:05:51.369Z,97.11
2023-05-15T06:08:18.142Z,95.32
2023-05-15T06:10:44.794Z,89.25
2023-05-15T06:13:11.931Z,86.06
2023-05-15T06:15:39.769Z,94.31
2023-05-15T06:18:06.781Z,100.00
2023-05-15T06:20:34.091Z,100.00
2023-05-15T06:23:00.861Z,100.00
2023-05-15T06:25:27.482Z,96.00
2023-05-15T06:27:54.151Z,100.00
2023-05-15T06:30:20.795Z,98.26
2023-05-15T06:32:47.537Z,95.93
2023-05-15T06:35:14.381Z,97.43
2023-05-15T06:37:41.113Z,100.00
2023-05-15T06:40:08.577Z,100.00
2023-05-15T06:42:35.560Z,100.00
2023-05-15T06:45:02.266Z,99.68
2023-05-15T06:47:29.086Z,97.09
2023-05-15T06:49:55.732Z,100.00
2023-05-15T06:52:22.392Z,88.12
2023-05-15T06:54:48.993Z,100.00
2023-05-15T06:57:16.062Z,100.00
2023-05-15T06:59:43.890Z,100.00
2023-05-15T07:02:10.879Z,100.00
2023-05-15T07:04:37.768Z,96.84
2023-05-15T07:07:04.669Z,100.00
2023-05-15T07:09:31.416Z,94.18
2023-05-15T07:11:58.102Z,89.30
2023-05-15T07:14:24.892Z,99.61
2023-05-15T07:16:51.692Z,99.08
2023-05-15T07:19:21.098Z,94.46
2023-05-15T07:21:48.063Z,100.00
2023-05-15T07:24:14.702Z,100.00
2023-05-15T07:26:50.647Z,99.05
2023-05-15T07:29:24.636Z,87.68
2023-05-15T07:31:52.703Z,90.10
2023-05-15T07:34:19.489Z,81.45
2023-05-15T07:36:46.087Z,83.47
2023-05-15T07:39:13.348Z,77.15
2023-05-15T07:41:40.024Z,77.76
2023-05-15T07:44:07.105Z,74.67
2023-05-15T07:46:34.774Z,71.29
2023-05-15T07:49:01.854Z,81.79
2023-05-15T07:51:47.303Z,78.04
2023-05-15T07:54:13.943Z,73.54
2023-05-15T07:56:40.664Z,73.55
2023-05-15T07:59:07.838Z,74.96
2023-05-15T08:01:34.797Z,72.38
2023-05-15T08:04:01.430Z,72.56
2023-05-15T08:06:28.141Z,70.22
2023-05-15T08:08:54.877Z,69.38
2023-05-15T08:11:22.213Z,69.68
2023-05-15T08:13:49.081Z,67.35
2023-05-15T08:16:16.224Z,69.30
2023-05-15T08:18:42.888Z,66.51
2023-05-15T08:21:09.520Z,67.72
2023-05-15T08:23:36.357Z,69.26
2023-05-15T08:26:02.957Z,69.00
2023-05-15T08:28:29.602Z,69.68
2023-05-15T08:30:56.292Z,67.52
2023-05-15T08:33:22.978Z,65.45
2023-05-15T08:35:49.710Z,66.28
2023-05-15T08:38:16.400Z,63.80
2023-05-15T08:40:47.358Z,63.87
2023-05-15T08:43:17.668Z,64.05
2023-05-15T08:45:44.731Z,64.61
2023-05-15T08:48:14.860Z,64.71
2023-05-15T08:50:43.651Z,63.49
2023-05-15T08:53:14.186Z,63.39
2023-05-15T08:55:42.269Z,63.61
2023-05-15T08:58:09.717Z,63.92
2023-05-15T09:00:38.785Z,62.87
2023-05-15T09:03:05.781Z,62.76
2023-05-15T09:05:32.857Z,62.90
2023-05-15T09:08:04.087Z,62.61
2023-05-15T09:10:31.716Z,63.39
2023-05-15T09:12:59.347Z,62.17
2023-05-15T09:15:27.264Z,62.80
2023-05-15T09:17:56.189Z,62.36
2023-05-15T09:20:37.154Z,61.66
2023-05-15T09:23:06.212Z,61.07
2023-05-15T09:25:42.749Z,62.10
2023-05-15T09:28:11.537Z,61.15
2023-05-15T09:30:39.457Z,57.93
2023-05-15T09:33:06.267Z,60.54
2023-05-15T09:35:32.973Z,58.36
2023-05-15T09:38:01.466Z,59.19
2023-05-15T09:40:32.603Z,58.89
2023-05-15T09:42:59.549Z,58.83
2023-05-15T09:45:29.924Z,58.92
2023-05-15T09:47:59.882Z,59.28
2023-05-15T09:50:37.146Z,57.54
2023-05-15T09:53:04.963Z,59.01
2023-05-15T09:55:34.917Z,59.19
2023-05-15T09:58:21.369Z,57.58
2023-05-15T10:00:49.699Z,57.44
2023-05-15T10:03:18.895Z,57.84
2023-05-15T10:05:45.816Z,58.29
2023-05-15T10:08:13.021Z,58.29
2023-05-15T10:10:40.051Z,58.29
2023-05-15T10:13:08.277Z,56.32
2023-05-15T10:15:35.561Z,55.85
2023-05-15T10:18:04.399Z,56.79
2023-05-15T10:20:49.863Z,53.77
2023-05-15T10:23:18.408Z,54.26
2023-05-15T10:25:56.138Z,55.56
2023-05-15T10:28:23.057Z,56.43
2023-05-15T10:30:49.922Z,55.46
2023-05-15T10:33:19.852Z,55.43
2023-05-15T10:35:48.514Z,56.99
2023-05-15T10:38:15.967Z,52.55
2023-05-15T10:40:43.745Z,53.15
2023-05-15T10:43:13.088Z,53.78
2023-05-15T10:45:40.102Z,50.40
2023-05-15T10:48:09.327Z,52.98
2023-05-15T10:50:37.790Z,55.15
2023-05-15T10:53:04.537Z,52.47
2023-05-15T10:55:31.553Z,52.72
2023-05-15T10:58:17.940Z,49.79
2023-05-15T11:00:45.670Z,53.23
2023-05-15T11:03:16.725Z,54.63
2023-05-15T11:06:09.901Z,49.25
2023-05-15T11:08:41.651Z,48.31
2023-05-15T11:11:10.672Z,52.48
2023-05-15T11:14:05.181Z,49.00
2023-05-15T11:16:53.806Z,49.33
2023-05-15T11:19:35.188Z,50.03
2023-05-15T11:22:16.899Z,51.52
2023-05-15T11:25:09.158Z,49.55
2023-05-15T11:27:40.250Z,51.85
2023-05-15T11:30:10.019Z,52.94
2023-05-15T11:32:52.803Z,48.73
2023-05-15T11:35:44.080Z,51.92
2023-05-15T11:38:10.974Z,53.68
2023-05-15T11:40:52.892Z,53.11
2023-05-15T11:43:32.829Z,53.36
2023-05-15T11:46:10.948Z,53.04
2023-05-15T11:48:40.107Z,55.13
2023-05-15T11:51:16.545Z,52.36
2023-05-15T11:53:43.580Z,51.87
2023-05-15T11:56:23.787Z,51.25
2023-05-15T11:58:51.978Z,52.55
2023-05-15T12:01:18.664Z,52.67
2023-05-15T12:03:48.319Z,53.20
2023-05-15T12:06:15.568Z,54.47
2023-05-15T12:08:42.354Z,52.94
2023-05-15T12:11:09.664Z,55.58
2023-05-15T12:13:36.388Z,54.26
2023-05-15T12:16:04.113Z,56.03
2023-05-15T12:18:32.369Z,55.88
2023-05-15T12:20:59.805Z,56.19
2023-05-15T12:23:28.639Z,56.05
2023-05-15T12:26:00.360Z,53.04
2023-05-15T12:28:27.468Z,55.05
2023-05-15T12:30:54.765Z,56.85
2023-05-15T12:33:21.898Z,55.39
2023-05-15T12:35:58.024Z,53.57
2023-05-15T12:38:26.958Z,53.79
2023-05-15T12:41:12.740Z,51.11
2023-05-15T12:43:39.640Z,52.62
2023-05-15T12:46:06.448Z,55.67
2023-05-15T12:48:33.564Z,53.42
2023-05-15T12:51:08.135Z,53.82
2023-05-15T12:53:36.407Z,55.05
2023-05-15T12:56:04.924Z,54.66
2023-05-15T12:58:31.632Z,53.58
2023-05-15T13:00:58.969Z,53.36
2023-05-15T13:03:26.519Z,48.84
2023-05-15T13:05:53.355Z,45.65
2023-05-15T13:08:20.521Z,46.21
2023-05-15T13:10:47.964Z,50.27
2023-05-15T13:13:15.588Z,47.80
2023-05-15T13:15:48.484Z,47.92
2023-05-15T13:18:18.606Z,50.27
2023-05-15T13:20:50.090Z,48.03
2023-05-15T13:23:19.491Z,44.92
2023-05-15T13:25:46.566Z,47.73
2023-05-15T13:28:13.932Z,48.57
2023-05-15T13:30:42.238Z,48.30
2023-05-15T13:33:10.616Z,49.08
2023-05-15T13:35:38.404Z,51.91
2023-05-15T13:38:25.212Z,47.73
2023-05-15T13:40:51.965Z,46.87
2023-05-15T13:43:18.593Z,49.16
2023-05-15T13:45:45.259Z,50.15
2023-05-15T13:48:11.906Z,48.94
2023-05-15T13:50:57.554Z,45.79
2023-05-15T13:53:24.127Z,50.78
2023-05-15T13:55:51.894Z,48.71
2023-05-15T13:58:21.222Z,49.67
2023-05-15T14:00:48.874Z,52.12
2023-05-15T14:03:15.904Z,48.96
2023-05-15T14:05:42.618Z,51.34
2023-05-15T14:08:09.406Z,49.99
2023-05-15T14:10:37.505Z,50.12
2023-05-15T14:13:04.569Z,50.67
2023-05-15T14:15:31.155Z,52.67
2023-05-15T14:17:57.948Z,50.86
2023-05-15T14:20:25.695Z,52.46
2023-05-15T14:22:52.464Z,53.20
2023-05-15T14:25:19.171Z,53.18
2023-05-15T14:27:46.693Z,54.36
2023-05-15T14:30:14.529Z,53.99
2023-05-15T14:32:41.563Z,53.48
2023-05-15T14:35:08.319Z,52.25
2023-05-15T14:37:36.685Z,51.64
2023-05-15T14:40:05.108Z,53.18
2023-05-15T14:42:32.147Z,54.59
2023-05-15T14:44:58.895Z,53.23
2023-05-15T14:47:27.942Z,54.92
2023-05-15T14:49:54.580Z,54.16
2023-05-15T14:52:21.293Z,55.56
2023-05-15T14:54:56.959Z,56.17
2023-05-15T14:57:34.572Z,56.50
2023-05-15T15:00:02.455Z,57.87
2023-05-15T15:02:29.145Z,57.74
2023-05-15T15:04:57.974Z,58.06
2023-05-15T15:07:29.691Z,57.62
2023-05-15T15:09:56.319Z,58.38
2023-05-15T15:12:24.132Z,58.43
2023-05-15T15:14:50.760Z,59.00
2023-05-15T15:17:18.477Z,59.70
2023-05-15T15:19:50.857Z,60.76
2023-05-15T15:22:17.600Z,60.57
2023-05-15T15:24:44.299Z,60.85
2023-05-15T15:27:10.913Z,61.96
2023-05-15T15:29:37.567Z,62.76
2023-05-15T15:32:04.723Z,61.84
2023-05-15T15:34:31.332Z,61.67
2023-05-15T15:36:57.953Z,61.69
2023-05-15T15:39:24.733Z,63.34
2023-05-15T15:41:51.402Z,64.08
2023-05-15T15:44:18.292Z,64.49
2023-05-15T15:46:44.919Z,64.03
2023-05-15T15:49:11.694Z,63.32
2023-05-15T15:51:38.574Z,64.71
2023-05-15T15:54:05.531Z,63.31
2023-05-15T15:56:33.525Z,62.22
2023-05-15T15:59:00.162Z,62.95
2023-05-15T16:01:27.581Z,62.84
2023-05-15T16:03:54.349Z,61.83
2023-05-15T16:06:21.156Z,64.36
2023-05-15T16:08:47.756Z,66.26
2023-05-15T16:11:15.773Z,65.19
2023-05-15T16:13:43.728Z,65.08
2023-05-15T16:16:10.654Z,64.18
2023-05-15T16:18:37.565Z,65.19
2023-05-15T16:21:04.397Z,65.66
2023-05-15T16:23:37.961Z,64.97
2023-05-15T16:26:05.110Z,67.16
2023-05-15T16:28:32.438Z,68.06
2023-05-15T16:30:59.887Z,66.22
2023-05-15T16:33:26.871Z,67.66
2023-05-15T16:35:53.699Z,68.37
2023-05-15T16:38:20.998Z,67.73
2023-05-15T16:40:47.734Z,67.56
2023-05-15T16:43:15.790Z,68.20
2023-05-15T16:45:42.937Z,67.79
2023-05-15T16:48:09.606Z,66.84
2023-05-15T16:50:37.235Z,67.12
2023-05-15T16:53:04.905Z,69.64
2023-05-15T16:55:32.521Z,68.16
2023-05-15T16:57:59.435Z,66.46
2023-05-15T17:00:26.517Z,68.17
2023-05-15T17:02:53.791Z,70.59
2023-05-15T17:05:20.744Z,68.59
2023-05-15T17:07:47.481Z,72.75
2023-05-15T17:10:25.509Z,72.69
2023-05-15T17:13:01.076Z,74.34
2023-05-15T17:15:28.038Z,73.19
2023-05-15T17:17:54.928Z,69.89
2023-05-15T17:20:21.619Z,70.66
2023-05-15T17:22:48.377Z,72.85
2023-05-15T17:25:15.041Z,70.38
2023-05-15T17:27:41.971Z,68.53
2023-05-15T17:30:10.441Z,66.34
2023-05-15T17:32:38.935Z,68.42
2023-05-15T17:35:06.450Z,68.28
2023-05-15T17:37:33.836Z,70.95
2023-05-15T17:40:00.873Z,70.23
2023-05-15T17:42:28.483Z,73.78
2023-05-15T17:44:56.476Z,72.63
2023-05-15T17:47:23.599Z,75.62
2023-05-15T17:49:50.355Z,71.09
2023-05-15T17:52:17.166Z,74.12
2023-05-15T17:54:43.835Z,70.68
2023-05-15T17:57:11.029Z,77.51
2023-05-15T17:59:37.804Z,72.31
2023-05-15T18:02:04.806Z,74.04
2023-05-15T18:04:31.493Z,74.12
2023-05-15T18:06:58.277Z,71.38
2023-05-15T18:09:25.450Z,72.42
2023-05-15T18:11:52.177Z,72.92
2023-05-15T18:14:18.958Z,78.18
2023-05-15T18:16:45.834Z,74.51
2023-05-15T18:19:12.761Z,71.21
2023-05-15T18:21:39.468Z,80.08
2023-05-15T18:24:06.745Z,77.41
2023-05-15T18:26:33.530Z,74.55
2023-05-15T18:29:00.161Z,81.40
2023-05-15T18:31:26.936Z,77.60
2023-05-15T18:33:53.735Z,83.08
2023-05-15T18:36:20.385Z,83.04
2023-05-15T18:38:47.008Z,77.86
2023-05-15T18:41:13.618Z,83.05
2023-05-15T18:43:40.597Z,78.15
2023-05-15T18:46:07.283Z,84.73
2023-05-15T18:48:33.873Z,85.55
2023-05-15T18:51:00.665Z,80.42
2023-05-15T18:53:28.446Z,79.26
2023-05-15T18:55:55.063Z,81.03
2023-05-15T18:58:22.051Z,81.55
2023-05-15T19:00:50.867Z,85.95
2023-05-15T19:03:18.879Z,83.54
2023-05-15T19:05:45.708Z,76.17
2023-05-15T19:08:12.310Z,84.39
2023-05-15T19:10:38.858Z,77.09
2023-05-15T19:13:05.808Z,84.98
2023-05-15T19:15:32.744Z,82.13
2023-05-15T19:17:59.497Z,79.75
2023-05-15T19:20:26.906Z,79.29
2023-05-15T19:22:55.749Z,81.30
2023-05-15T19:25:22.748Z,85.37
2023-05-15T19:27:49.939Z,84.12
2023-05-15T19:30:16.543Z,78.92
2023-05-15T19:32:43.270Z,88.52
2023-05-15T19:35:10.262Z,80.90
2023-05-15T19:37:37.417Z,86.72
2023-05-15T19:40:07.082Z,83.83
2023-05-15T19:42:33.787Z,83.60
2023-05-15T19:45:00.678Z,75.26
2023-05-15T19:47:27.484Z,86.84
2023-05-15T19:49:54.407Z,75.32
2023-05-15T19:52:21.155Z,78.67
2023-05-15T19:54:47.792Z,86.70
2023-05-15T19:57:14.420Z,78.18
2023-05-15T19:59:41.215Z,77.06
2023-05-15T20:02:11.229Z,86.53
2023-05-15T20:04:37.994Z,85.47
2023-05-15T20:07:05.203Z,79.74
2023-05-15T20:09:33.804Z,83.86
2023-05-15T20:12:00.883Z,84.17
2023-05-15T20:14:28.002Z,78.16
2023-05-15T20:16:54.782Z,82.46
2023-05-15T20:19:22.400Z,80.07
2023-05-15T20:21:50.646Z,84.65
2023-05-15T20:24:18.109Z,87.20
2023-05-15T20:26:45.198Z,80.72
2023-05-15T20:29:13.257Z,85.26
2023-05-15T20:31:40.570Z,84.15
2023-05-15T20:34:08.212Z,84.60
2023-05-15T20:36:34.970Z,86.52
2023-05-15T20:39:05.681Z,87.23
2023-05-15T20:41:33.552Z,82.16
2023-05-15T20:44:00.451Z,89.61
2023-05-15T20:46:29.937Z,82.59
2023-05-15T20:48:56.841Z,83.33
2023-05-15T20:51:24.103Z,82.71
2023-05-15T20:53:52.089Z,83.88
2023-05-15T20:56:18.963Z,88.59
2023-05-15T20:58:45.707Z,91.71
2023-05-15T21:01:12.447Z,93.23
2023-05-15T21:03:39.245Z,89.71
2023-05-15T21:06:06.069Z,88.09
2023-05-15T21:08:53.071Z,93.76
2023-05-15T21:11:19.806Z,93.77
2023-05-15T21:13:46.500Z,84.31
2023-05-15T21:16:13.153Z,90.14
2023-05-15T21:18:40.070Z,90.32
2023-05-15T21:21:07.309Z,93.28
2023-05-15T21:23:36.607Z,93.09
2023-05-15T21:26:03.955Z,95.21
2023-05-15T21:28:30.879Z,89.99
2023-05-15T21:30:57.838Z,93.30
2023-05-15T21:33:24.501Z,88.98
2023-05-15T21:35:51.678Z,93.60
2023-05-15T21:38:18.521Z,87.19
2023-05-15T21:40:45.304Z,92.29
2023-05-15T21:43:12.045Z,82.57
2023-05-15T21:45:38.828Z,86.56
2023-05-15T21:48:05.656Z,95.95
2023-05-15T21:50:32.784Z,92.17
2023-05-15T21:52:59.511Z,95.18
2023-05-15T21:55:26.328Z,84.73
2023-05-15T21:57:52.866Z,89.33
2023-05-15T22:00:19.758Z,94.28
2023-05-15T22:02:46.565Z,90.15
2023-05-15T22:05:13.542Z,86.59
2023-05-15T22:07:40.499Z,92.31
2023-05-15T22:10:07.738Z,97.28
2023-05-15T22:12:34.777Z,88.96
2023-05-15T22:15:01.384Z,90.00
2023-05-15T22:17:29.396Z,94.47
2023-05-15T22:20:08.126Z,86.21
2023-05-15T22:22:35.756Z,94.39
2023-05-15T22:25:02.755Z,93.47
2023-05-15T22:27:29.427Z,100.00
2023-05-15T22:29:56.425Z,95.27
2023-05-15T22:32:23.462Z,95.41
2023-05-15T22:34:50.329Z,85.47
2023-05-15T22:37:16.965Z,92.43
2023-05-15T22:39:43.939Z,96.30
2023-05-15T22:42:10.666Z,91.33
2023-05-15T22:44:37.565Z,94.86
2023-05-15T22:47:04.380Z,93.97
2023-05-15T22:49:31.183Z,94.36
2023-05-15T22:51:58.448Z,93.56
2023-05-15T22:54:25.262Z,99.57
2023-05-15T22:56:52.663Z,88.72
2023-05-15T22:59:19.980Z,93.83
2023-05-15T23:01:47.485Z,89.56
2023-05-15T23:04:15.187Z,90.51
2023-05-15T23:06:41.963Z,94.50
2023-05-15T23:09:09.822Z,92.86
2023-05-15T23:11:37.855Z,91.53
2023-05-15T23:14:04.605Z,92.61
2023-05-15T23:16:31.808Z,89.89
2023-05-15T23:18:59.839Z,91.94
2023-05-15T23:21:27.008Z,89.21
2023-05-15T23:23:54.026Z,92.82
2023-05-15T23:26:22.106Z,89.92
2023-05-15T23:28:48.833Z,90.03
2023-05-15T23:31:15.717Z,91.08
2023-05-15T23:33:42.985Z,86.13
2023-05-15T23:36:09.905Z,83.38
2023-05-15T23:38:37.611Z,87.11
2023-05-15T23:41:04.390Z,82.27
2023-05-15T23:43:32.224Z,82.91
2023-05-15T23:45:58.940Z,83.43
2023-05-15T23:48:26.350Z,90.17
2023-05-15T23:50:53.088Z,93.01
2023-05-15T23:53:20.918Z,89.13
2023-05-15T23:55:47.859Z,88.91
2023-05-15T23:58:14.610Z,90.55
